sensor_id;sensor_type;location;lat;lon;timestamp;temperature;humidity
11908;DHT22;6014;47.690;9.130;2022-10-17T00:00:40;10.80;99.90
11908;DHT22;6014;47.690;9.130;2022-10-17T00:03:09;10.70;99.90
11908;DHT22;6014;47.690;9.130;2022-10-17T00:05:43;10.70;99.90
11908;DHT22;6014;47.690;9.130;2022-10-17T00:08:17;10.60;99.90
11908;DHT22;6014;47.690;9.130;2022-10-17T00:10:55;10.70;99.90
11908;DHT22;6014;47.690;9.130;2022-10-17T00:13:24;10.70;99.90
11908;DHT22;6014;47.690;9.130;2022-10-17T00:15:53;10.80;99.90
11908;DHT22;6014;47.690;9.130;2022-10-17T00:18:22;10.90;99.90
11908;DHT22;6014;47.690;9.130;2022-10-17T00:20:51;11.00;99.90
11908;DHT22;6014;47.690;9.130;2022-10-17T00:23:29;11.00;99.90
11908;DHT22;6014;47.690;9.130;2022-10-17T00:25:58;10.90;99.90
11908;DHT22;6014;47.690;9.130;2022-10-17T00:28:28;10.90;99.90
11908;DHT22;6014;47.690;9.130;2022-10-17T00:33:50;10.80;99.90
11908;DHT22;6014;47.690;9.130;2022-10-17T00:36:21;10.80;99.90
11908;DHT22;6014;47.690;9.130;2022-10-17T00:38:56;10.70;99.90
11908;DHT22;6014;47.690;9.130;2022-10-17T00:41:32;10.70;99.90
11908;DHT22;6014;47.690;9.130;2022-10-17T00:44:03;10.60;99.90
11908;DHT22;6014;47.690;9.130;2022-10-17T00:46:33;10.60;99.90
11908;DHT22;6014;47.690;9.130;2022-10-17T00:49:06;10.50;99.90
11908;DHT22;6014;47.690;9.130;2022-10-17T00:51:55;10.50;99.90
11908;DHT22;6014;47.690;9.130;2022-10-17T00:54:29;10.50;99.90
11908;DHT22;6014;47.690;9.130;2022-10-17T00:57:00;10.50;99.90
11908;DHT22;6014;47.690;9.130;2022-10-17T00:59:32;10.60;99.90
11908;DHT22;6014;47.690;9.130;2022-10-17T01:02:05;10.60;99.90
11908;DHT22;6014;47.690;9.130;2022-10-17T01:04:34;10.60;99.90
11908;DHT22;6014;47.690;9.130;2022-10-17T01:07:07;10.60;99.90
11908;DHT22;6014;47.690;9.130;2022-10-17T01:09:37;10.60;99.90
11908;DHT22;6014;47.690;9.130;2022-10-17T01:12:10;10.60;99.90
11908;DHT22;6014;47.690;9.130;2022-10-17T01:14:52;10.70;99.90
11908;DHT22;6014;47.690;9.130;2022-10-17T01:17:33;10.70;99.90
11908;DHT22;6014;47.690;9.130;2022-10-17T01:26:58;10.70;99.90
11908;DHT22;6014;47.690;9.130;2022-10-17T01:30:05;10.60;99.90
11908;DHT22;6014;47.690;9.130;2022-10-17T01:32:46;10.60;99.90
11908;DHT22;6014;47.690;9.130;2022-10-17T01:35:33;10.50;99.90
11908;DHT22;6014;47.690;9.130;2022-10-17T01:38:08;10.50;99.90
11908;DHT22;6014;47.690;9.130;2022-10-17T01:40:41;10.60;99.90
11908;DHT22;6014;47.690;9.130;2022-10-17T01:43:15;10.60;99.90
11908;DHT22;6014;47.690;9.130;2022-10-17T01:46:00;10.60;99.90
11908;DHT22;6014;47.690;9.130;2022-10-17T01:48:37;10.60;99.90
11908;DHT22;6014;47.690;9.130;2022-10-17T01:51:10;10.50;99.90
11908;DHT22;6014;47.690;9.130;2022-10-17T01:53:46;10.50;99.90
11908;DHT22;6014;47.690;9.130;2022-10-17T01:56:18;10.40;99.90
11908;DHT22;6014;47.690;9.130;2022-10-17T01:58:50;10.40;99.90
11908;DHT22;6014;47.690;9.130;2022-10-17T02:01:22;10.30;99.90
11908;DHT22;6014;47.690;9.130;2022-10-17T02:03:52;10.30;99.90
11908;DHT22;6014;47.690;9.130;2022-10-17T02:06:24;10.30;99.90
11908;DHT22;6014;47.690;9.130;2022-10-17T02:08:52;10.20;99.90
11908;DHT22;6014;47.690;9.130;2022-10-17T02:11:22;10.20;99.90
11908;DHT22;6014;47.690;9.130;2022-10-17T02:14:02;10.30;99.90
11908;DHT22;6014;47.690;9.130;2022-10-17T02:16:50;10.30;99.90
11908;DHT22;6014;47.690;9.130;2022-10-17T02:19:44;10.50;99.90
11908;DHT22;6014;47.690;9.130;2022-10-17T02:22:24;10.60;99.90
11908;DHT22;6014;47.690;9.130;2022-10-17T02:25:01;10.80;99.90
11908;DHT22;6014;47.690;9.130;2022-10-17T02:27:35;10.90;99.90
11908;DHT22;6014;47.690;9.130;2022-10-17T02:30:13;10.90;99.90
11908;DHT22;6014;47.690;9.130;2022-10-17T02:32:54;11.10;99.90
11908;DHT22;6014;47.690;9.130;2022-10-17T02:35:29;11.50;99.90
11908;DHT22;6014;47.690;9.130;2022-10-17T02:38:00;11.70;99.90
11908;DHT22;6014;47.690;9.130;2022-10-17T02:40:30;11.80;99.90
11908;DHT22;6014;47.690;9.130;2022-10-17T02:42:59;11.90;99.90
11908;DHT22;6014;47.690;9.130;2022-10-17T02:45:30;12.00;99.90
11908;DHT22;6014;47.690;9.130;2022-10-17T02:48:03;12.10;99.90
11908;DHT22;6014;47.690;9.130;2022-10-17T02:50:48;12.20;99.90
11908;DHT22;6014;47.690;9.130;2022-10-17T02:53:28;12.20;99.90
11908;DHT22;6014;47.690;9.130;2022-10-17T02:56:00;12.30;99.90
11908;DHT22;6014;47.690;9.130;2022-10-17T02:58:31;12.30;99.90
11908;DHT22;6014;47.690;9.130;2022-10-17T03:01:00;12.30;99.90
11908;DHT22;6014;47.690;9.130;2022-10-17T03:03:30;12.30;99.90
11908;DHT22;6014;47.690;9.130;2022-10-17T03:06:18;12.30;99.90
11908;DHT22;6014;47.690;9.130;2022-10-17T03:08:47;12.30;99.90
11908;DHT22;6014;47.690;9.130;2022-10-17T03:11:15;12.40;99.90
11908;DHT22;6014;47.690;9.130;2022-10-17T03:13:43;12.40;99.90
11908;DHT22;6014;47.690;9.130;2022-10-17T03:16:37;12.40;99.90
11908;DHT22;6014;47.690;9.130;2022-10-17T03:19:06;12.40;99.90
11908;DHT22;6014;47.690;9.130;2022-10-17T03:21:45;12.40;99.90
11908;DHT22;6014;47.690;9.130;2022-10-17T03:24:13;12.40;99.90
11908;DHT22;6014;47.690;9.130;2022-10-17T03:26:41;12.40;99.90
11908;DHT22;6014;47.690;9.130;2022-10-17T03:29:09;12.40;99.90
11908;DHT22;6014;47.690;9.130;2022-10-17T03:31:38;12.50;99.90
11908;DHT22;6014;47.690;9.130;2022-10-17T03:34:12;12.50;99.90
11908;DHT22;6014;47.690;9.130;2022-10-17T03:36:42;12.40;99.90
11908;DHT22;6014;47.690;9.130;2022-10-17T03:39:12;12.40;99.90
11908;DHT22;6014;47.690;9.130;2022-10-17T03:41:40;12.50;99.90
11908;DHT22;6014;47.690;9.130;2022-10-17T03:44:08;12.50;99.90
11908;DHT22;6014;47.690;9.130;2022-10-17T03:46:38;12.40;99.90
11908;DHT22;6014;47.690;9.130;2022-10-17T03:49:07;12.30;99.90
11908;DHT22;6014;47.690;9.130;2022-10-17T03:51:49;12.20;99.90
11908;DHT22;6014;47.690;9.130;2022-10-17T03:54:19;12.10;99.90
11908;DHT22;6014;47.690;9.130;2022-10-17T03:56:50;12.20;99.90
11908;DHT22;6014;47.690;9.130;2022-10-17T03:59:18;12.10;99.90
11908;DHT22;6014;47.690;9.130;2022-10-17T04:01:47;12.20;99.90
11908;DHT22;6014;47.690;9.130;2022-10-17T04:04:15;12.20;99.90
11908;DHT22;6014;47.690;9.130;2022-10-17T04:06:55;12.10;99.90
11908;DHT22;6014;47.690;9.130;2022-10-17T04:09:25;12.00;99.90
11908;DHT22;6014;47.690;9.130;2022-10-17T04:11:53;12.00;99.90
11908;DHT22;6014;47.690;9.130;2022-10-17T04:14:21;12.00;99.90
11908;DHT22;6014;47.690;9.130;2022-10-17T04:16:49;12.10;99.90
11908;DHT22;6014;47.690;9.130;2022-10-17T04:19:23;12.10;99.90
11908;DHT22;6014;47.690;9.130;2022-10-17T04:21:52;12.00;99.90
11908;DHT22;6014;47.690;9.130;2022-10-17T04:24:20;11.90;99.90
11908;DHT22;6014;47.690;9.130;2022-10-17T04:26:51;12.00;99.90
11908;DHT22;6014;47.690;9.130;2022-10-17T04:29:23;12.00;99.90
11908;DHT22;6014;47.690;9.130;2022-10-17T04:31:52;12.00;99.90
11908;DHT22;6014;47.690;9.130;2022-10-17T04:34:21;12.00;99.90
11908;DHT22;6014;47.690;9.130;2022-10-17T04:36:57;12.10;99.90
11908;DHT22;6014;47.690;9.130;2022-10-17T04:39:25;12.00;99.90
11908;DHT22;6014;47.690;9.130;2022-10-17T04:41:57;12.10;99.90
11908;DHT22;6014;47.690;9.130;2022-10-17T04:44:27;12.00;99.90
11908;DHT22;6014;47.690;9.130;2022-10-17T04:46:56;12.00;99.90
11908;DHT22;6014;47.690;9.130;2022-10-17T04:49:24;11.90;99.90
11908;DHT22;6014;47.690;9.130;2022-10-17T04:51:53;11.90;99.90
11908;DHT22;6014;47.690;9.130;2022-10-17T04:54:21;12.00;99.90
11908;DHT22;6014;47.690;9.130;2022-10-17T04:56:50;12.00;99.90
11908;DHT22;6014;47.690;9.130;2022-10-17T04:59:19;12.10;99.90
11908;DHT22;6014;47.690;9.130;2022-10-17T05:01:48;12.10;99.90
11908;DHT22;6014;47.690;9.130;2022-10-17T05:04:16;12.10;99.90
11908;DHT22;6014;47.690;9.130;2022-10-17T05:06:50;12.10;99.90
11908;DHT22;6014;47.690;9.130;2022-10-17T05:09:18;12.00;99.90
11908;DHT22;6014;47.690;9.130;2022-10-17T05:11:47;12.00;99.90
11908;DHT22;6014;47.690;9.130;2022-10-17T05:14:19;12.00;99.90
11908;DHT22;6014;47.690;9.130;2022-10-17T05:17:00;12.00;99.90
11908;DHT22;6014;47.690;9.130;2022-10-17T05:19:30;12.00;99.90
11908;DHT22;6014;47.690;9.130;2022-10-17T05:22:00;12.00;99.90
11908;DHT22;6014;47.690;9.130;2022-10-17T05:24:28;11.80;99.90
11908;DHT22;6014;47.690;9.130;2022-10-17T05:27:15;11.80;99.90
11908;DHT22;6014;47.690;9.130;2022-10-17T05:29:45;11.60;99.90
11908;DHT22;6014;47.690;9.130;2022-10-17T05:32:14;11.60;99.90
11908;DHT22;6014;47.690;9.130;2022-10-17T05:34:42;11.60;99.90
11908;DHT22;6014;47.690;9.130;2022-10-17T05:37:10;11.50;99.90
11908;DHT22;6014;47.690;9.130;2022-10-17T05:39:39;11.40;99.90
11908;DHT22;6014;47.690;9.130;2022-10-17T05:42:07;11.40;99.90
11908;DHT22;6014;47.690;9.130;2022-10-17T05:44:46;11.40;99.90
11908;DHT22;6014;47.690;9.130;2022-10-17T05:47:14;11.30;99.90
11908;DHT22;6014;47.690;9.130;2022-10-17T05:49:42;11.30;99.90
11908;DHT22;6014;47.690;9.130;2022-10-17T05:52:17;11.40;99.90
11908;DHT22;6014;47.690;9.130;2022-10-17T05:54:46;11.50;99.90
11908;DHT22;6014;47.690;9.130;2022-10-17T05:57:14;11.50;99.90
11908;DHT22;6014;47.690;9.130;2022-10-17T05:59:42;11.50;99.90
11908;DHT22;6014;47.690;9.130;2022-10-17T06:02:12;11.50;99.90
11908;DHT22;6014;47.690;9.130;2022-10-17T06:04:41;11.40;99.90
11908;DHT22;6014;47.690;9.130;2022-10-17T06:07:11;11.40;99.90
11908;DHT22;6014;47.690;9.130;2022-10-17T06:09:53;11.40;99.90
11908;DHT22;6014;47.690;9.130;2022-10-17T06:12:23;11.40;99.90
11908;DHT22;6014;47.690;9.130;2022-10-17T06:15:07;11.40;99.90
11908;DHT22;6014;47.690;9.130;2022-10-17T06:17:43;11.40;99.90
11908;DHT22;6014;47.690;9.130;2022-10-17T06:20:11;11.40;99.90
11908;DHT22;6014;47.690;9.130;2022-10-17T06:22:40;11.50;99.90
11908;DHT22;6014;47.690;9.130;2022-10-17T06:25:09;11.50;99.90
11908;DHT22;6014;47.690;9.130;2022-10-17T06:27:37;11.60;99.90
11908;DHT22;6014;47.690;9.130;2022-10-17T06:30:06;11.60;99.90
11908;DHT22;6014;47.690;9.130;2022-10-17T06:32:35;11.60;99.90
11908;DHT22;6014;47.690;9.130;2022-10-17T06:35:05;11.80;99.90
11908;DHT22;6014;47.690;9.130;2022-10-17T06:37:34;11.60;99.90
11908;DHT22;6014;47.690;9.130;2022-10-17T06:40:04;11.60;99.90
11908;DHT22;6014;47.690;9.130;2022-10-17T06:42:34;11.60;99.90
11908;DHT22;6014;47.690;9.130;2022-10-17T06:45:03;11.70;99.90
11908;DHT22;6014;47.690;9.130;2022-10-17T06:47:36;11.70;99.90
11908;DHT22;6014;47.690;9.130;2022-10-17T06:50:07;11.70;99.90
11908;DHT22;6014;47.690;9.130;2022-10-17T06:52:36;11.80;99.90
11908;DHT22;6014;47.690;9.130;2022-10-17T06:55:05;11.90;99.90
11908;DHT22;6014;47.690;9.130;2022-10-17T06:57:34;12.00;99.90
11908;DHT22;6014;47.690;9.130;2022-10-17T07:00:03;12.10;99.90
11908;DHT22;6014;47.690;9.130;2022-10-17T07:02:32;12.30;99.90
11908;DHT22;6014;47.690;9.130;2022-10-17T07:05:01;12.30;99.90
11908;DHT22;6014;47.690;9.130;2022-10-17T07:07:32;12.40;99.90
11908;DHT22;6014;47.690;9.130;2022-10-17T07:10:01;12.40;99.90
11908;DHT22;6014;47.690;9.130;2022-10-17T07:12:34;12.40;99.90
11908;DHT22;6014;47.690;9.130;2022-10-17T07:15:03;12.50;99.90
11908;DHT22;6014;47.690;9.130;2022-10-17T07:17:40;12.60;99.90
11908;DHT22;6014;47.690;9.130;2022-10-17T07:20:18;12.70;99.90
11908;DHT22;6014;47.690;9.130;2022-10-17T07:22:47;12.80;99.90
11908;DHT22;6014;47.690;9.130;2022-10-17T07:25:16;12.80;99.90
11908;DHT22;6014;47.690;9.130;2022-10-17T07:27:44;12.90;99.90
11908;DHT22;6014;47.690;9.130;2022-10-17T07:30:13;13.00;99.90
11908;DHT22;6014;47.690;9.130;2022-10-17T07:32:44;13.10;99.90
11908;DHT22;6014;47.690;9.130;2022-10-17T07:35:12;13.20;99.90
11908;DHT22;6014;47.690;9.130;2022-10-17T07:37:41;13.10;99.90
11908;DHT22;6014;47.690;9.130;2022-10-17T07:40:11;13.20;99.90
11908;DHT22;6014;47.690;9.130;2022-10-17T07:42:40;13.20;99.90
11908;DHT22;6014;47.690;9.130;2022-10-17T07:45:09;13.20;99.90
11908;DHT22;6014;47.690;9.130;2022-10-17T07:47:37;13.20;99.90
11908;DHT22;6014;47.690;9.130;2022-10-17T07:50:10;13.30;99.90
11908;DHT22;6014;47.690;9.130;2022-10-17T07:52:39;13.20;99.90
11908;DHT22;6014;47.690;9.130;2022-10-17T07:55:09;13.20;99.90
11908;DHT22;6014;47.690;9.130;2022-10-17T07:57:38;13.10;99.90
11908;DHT22;6014;47.690;9.130;2022-10-17T08:00:08;13.10;99.90
11908;DHT22;6014;47.690;9.130;2022-10-17T08:02:36;13.10;99.90
11908;DHT22;6014;47.690;9.130;2022-10-17T08:05:07;13.20;99.90
11908;DHT22;6014;47.690;9.130;2022-10-17T08:07:35;13.20;99.90
11908;DHT22;6014;47.690;9.130;2022-10-17T08:10:06;13.10;99.90
11908;DHT22;6014;47.690;9.130;2022-10-17T08:12:41;13.10;99.90
11908;DHT22;6014;47.690;9.130;2022-10-17T08:15:10;13.20;99.90
11908;DHT22;6014;47.690;9.130;2022-10-17T08:17:38;13.10;99.90
11908;DHT22;6014;47.690;9.130;2022-10-17T08:20:07;13.20;99.90
11908;DHT22;6014;47.690;9.130;2022-10-17T08:22:41;13.20;99.90
11908;DHT22;6014;47.690;9.130;2022-10-17T08:25:10;13.50;99.90
11908;DHT22;6014;47.690;9.130;2022-10-17T08:27:38;13.50;99.90
11908;DHT22;6014;47.690;9.130;2022-10-17T08:30:10;13.60;99.90
11908;DHT22;6014;47.690;9.130;2022-10-17T08:32:39;13.50;99.90
11908;DHT22;6014;47.690;9.130;2022-10-17T08:35:08;13.40;99.90
11908;DHT22;6014;47.690;9.130;2022-10-17T08:37:37;13.50;99.90
11908;DHT22;6014;47.690;9.130;2022-10-17T08:40:08;13.50;99.90
11908;DHT22;6014;47.690;9.130;2022-10-17T08:42:57;13.60;99.90
11908;DHT22;6014;47.690;9.130;2022-10-17T08:45:36;13.70;99.90
11908;DHT22;6014;47.690;9.130;2022-10-17T08:48:10;13.70;99.90
11908;DHT22;6014;47.690;9.130;2022-10-17T08:50:44;13.80;99.90
11908;DHT22;6014;47.690;9.130;2022-10-17T08:53:17;13.80;99.90
11908;DHT22;6014;47.690;9.130;2022-10-17T08:55:51;13.80;99.90
11908;DHT22;6014;47.690;9.130;2022-10-17T08:58:21;13.90;99.90
11908;DHT22;6014;47.690;9.130;2022-10-17T09:01:01;13.90;99.90
11908;DHT22;6014;47.690;9.130;2022-10-17T09:03:50;14.00;99.90
11908;DHT22;6014;47.690;9.130;2022-10-17T09:06:26;14.10;99.90
11908;DHT22;6014;47.690;9.130;2022-10-17T09:09:08;14.20;99.90
11908;DHT22;6014;47.690;9.130;2022-10-17T09:11:53;14.10;99.90
11908;DHT22;6014;47.690;9.130;2022-10-17T09:14:52;14.20;99.90
11908;DHT22;6014;47.690;9.130;2022-10-17T09:17:33;14.30;99.90
11908;DHT22;6014;47.690;9.130;2022-10-17T09:20:10;14.40;99.90
11908;DHT22;6014;47.690;9.130;2022-10-17T09:22:43;14.30;99.90
11908;DHT22;6014;47.690;9.130;2022-10-17T09:25:18;14.30;99.90
11908;DHT22;6014;47.690;9.130;2022-10-17T09:27:49;14.40;99.90
11908;DHT22;6014;47.690;9.130;2022-10-17T09:30:34;14.50;99.90
11908;DHT22;6014;47.690;9.130;2022-10-17T09:33:14;14.40;99.90
11908;DHT22;6014;47.690;9.130;2022-10-17T09:36:03;14.50;99.90
11908;DHT22;6014;47.690;9.130;2022-10-17T09:38:38;14.40;99.90
11908;DHT22;6014;47.690;9.130;2022-10-17T09:41:16;14.60;99.90
11908;DHT22;6014;47.690;9.130;2022-10-17T09:44:18;14.90;99.90
11908;DHT22;6014;47.690;9.130;2022-10-17T09:47:17;14.80;99.90
11908;DHT22;6014;47.690;9.130;2022-10-17T09:49:51;14.80;99.90
11908;DHT22;6014;47.690;9.130;2022-10-17T09:52:24;15.00;99.90
11908;DHT22;6014;47.690;9.130;2022-10-17T09:54:58;15.20;99.90
11908;DHT22;6014;47.690;9.130;2022-10-17T09:57:28;15.60;99.90
11908;DHT22;6014;47.690;9.130;2022-10-17T10:00:22;15.60;99.90
11908;DHT22;6014;47.690;9.130;2022-10-17T10:03:13;15.80;99.90
11908;DHT22;6014;47.690;9.130;2022-10-17T10:05:59;15.80;99.90
11908;DHT22;6014;47.690;9.130;2022-10-17T10:08:31;16.10;99.90
11908;DHT22;6014;47.690;9.130;2022-10-17T10:11:02;16.10;99.90
11908;DHT22;6014;47.690;9.130;2022-10-17T10:13:34;16.10;99.90
11908;DHT22;6014;47.690;9.130;2022-10-17T10:16:14;16.10;99.90
11908;DHT22;6014;47.690;9.130;2022-10-17T10:18:45;16.40;99.90
11908;DHT22;6014;47.690;9.130;2022-10-17T10:21:19;16.70;99.90
11908;DHT22;6014;47.690;9.130;2022-10-17T10:24:10;16.40;99.90
11908;DHT22;6014;47.690;9.130;2022-10-17T10:26:42;16.40;99.90
11908;DHT22;6014;47.690;9.130;2022-10-17T10:29:21;16.50;99.90
11908;DHT22;6014;47.690;9.130;2022-10-17T10:31:54;16.60;99.90
11908;DHT22;6014;47.690;9.130;2022-10-17T10:34:26;16.50;99.90
11908;DHT22;6014;47.690;9.130;2022-10-17T10:37:01;16.60;99.90
11908;DHT22;6014;47.690;9.130;2022-10-17T10:39:34;16.70;99.90
11908;DHT22;6014;47.690;9.130;2022-10-17T10:42:07;16.80;99.90
11908;DHT22;6014;47.690;9.130;2022-10-17T10:44:57;17.00;99.90
11908;DHT22;6014;47.690;9.130;2022-10-17T10:47:29;17.50;99.90
11908;DHT22;6014;47.690;9.130;2022-10-17T10:50:17;17.60;99.90
11908;DHT22;6014;47.690;9.130;2022-10-17T10:53:01;18.00;99.90
11908;DHT22;6014;47.690;9.130;2022-10-17T10:55:42;17.90;99.90
11908;DHT22;6014;47.690;9.130;2022-10-17T10:58:24;18.10;99.90
11908;DHT22;6014;47.690;9.130;2022-10-17T11:00:56;17.90;99.90
11908;DHT22;6014;47.690;9.130;2022-10-17T11:03:31;18.00;99.90
11908;DHT22;6014;47.690;9.130;2022-10-17T11:06:09;18.00;99.90
11908;DHT22;6014;47.690;9.130;2022-10-17T11:08:44;17.90;99.90
11908;DHT22;6014;47.690;9.130;2022-10-17T11:11:23;18.00;99.90
11908;DHT22;6014;47.690;9.130;2022-10-17T11:13:59;18.10;99.90
11908;DHT22;6014;47.690;9.130;2022-10-17T11:16:36;18.40;99.90
11908;DHT22;6014;47.690;9.130;2022-10-17T11:19:10;18.30;99.90
11908;DHT22;6014;47.690;9.130;2022-10-17T11:21:46;18.50;99.90
11908;DHT22;6014;47.690;9.130;2022-10-17T11:24:23;18.50;99.90
11908;DHT22;6014;47.690;9.130;2022-10-17T11:26:57;18.80;99.90
11908;DHT22;6014;47.690;9.130;2022-10-17T11:29:28;19.20;99.90
11908;DHT22;6014;47.690;9.130;2022-10-17T11:32:01;19.30;99.90
11908;DHT22;6014;47.690;9.130;2022-10-17T11:34:34;19.50;99.90
11908;DHT22;6014;47.690;9.130;2022-10-17T11:37:13;19.20;99.90
11908;DHT22;6014;47.690;9.130;2022-10-17T11:39:49;19.40;99.90
11908;DHT22;6014;47.690;9.130;2022-10-17T11:42:21;19.80;99.90
11908;DHT22;6014;47.690;9.130;2022-10-17T11:44:55;20.10;99.90
11908;DHT22;6014;47.690;9.130;2022-10-17T11:47:33;20.30;99.90
11908;DHT22;6014;47.690;9.130;2022-10-17T11:50:17;20.30;99.90
11908;DHT22;6014;47.690;9.130;2022-10-17T11:53:13;20.50;99.90
11908;DHT22;6014;47.690;9.130;2022-10-17T11:55:45;20.80;99.90
11908;DHT22;6014;47.690;9.130;2022-10-17T11:58:27;21.10;99.90
11908;DHT22;6014;47.690;9.130;2022-10-17T12:01:06;21.10;99.90
11908;DHT22;6014;47.690;9.130;2022-10-17T12:04:13;20.80;99.90
11908;DHT22;6014;47.690;9.130;2022-10-17T12:06:55;20.90;99.90
11908;DHT22;6014;47.690;9.130;2022-10-17T12:09:37;21.00;99.90
11908;DHT22;6014;47.690;9.130;2022-10-17T12:12:25;21.30;99.90
11908;DHT22;6014;47.690;9.130;2022-10-17T12:15:28;20.90;99.90
11908;DHT22;6014;47.690;9.130;2022-10-17T12:17:59;20.90;99.90
11908;DHT22;6014;47.690;9.130;2022-10-17T12:20:33;21.20;99.90
11908;DHT22;6014;47.690;9.130;2022-10-17T12:23:25;21.40;99.90
11908;DHT22;6014;47.690;9.130;2022-10-17T12:25:55;21.50;99.90
11908;DHT22;6014;47.690;9.130;2022-10-17T12:28:32;21.50;99.90
11908;DHT22;6014;47.690;9.130;2022-10-17T12:31:23;21.50;99.90
11908;DHT22;6014;47.690;9.130;2022-10-17T12:34:01;21.50;99.90
11908;DHT22;6014;47.690;9.130;2022-10-17T12:36:39;21.70;99.90
11908;DHT22;6014;47.690;9.130;2022-10-17T12:42:52;21.80;99.90
11908;DHT22;6014;47.690;9.130;2022-10-17T12:45:47;22.10;99.90
11908;DHT22;6014;47.690;9.130;2022-10-17T12:54:46;22.40;99.90
11908;DHT22;6014;47.690;9.130;2022-10-17T12:57:41;22.50;99.90
11908;DHT22;6014;47.690;9.130;2022-10-17T13:00:20;22.60;99.90
11908;DHT22;6014;47.690;9.130;2022-10-17T13:02:53;22.90;99.90
11908;DHT22;6014;47.690;9.130;2022-10-17T13:05:29;23.20;99.90
11908;DHT22;6014;47.690;9.130;2022-10-17T13:08:02;23.30;99.90
11908;DHT22;6014;47.690;9.130;2022-10-17T13:10:36;23.10;99.90
11908;DHT22;6014;47.690;9.130;2022-10-17T13:13:13;23.00;99.90
11908;DHT22;6014;47.690;9.130;2022-10-17T13:16:05;23.10;99.90
11908;DHT22;6014;47.690;9.130;2022-10-17T13:18:34;23.00;99.90
11908;DHT22;6014;47.690;9.130;2022-10-17T13:21:12;23.10;99.90
11908;DHT22;6014;47.690;9.130;2022-10-17T13:23:41;23.10;99.90
11908;DHT22;6014;47.690;9.130;2022-10-17T13:26:13;23.30;99.00
11908;DHT22;6014;47.690;9.130;2022-10-17T13:28:46;23.30;99.00
11908;DHT22;6014;47.690;9.130;2022-10-17T13:31:29;23.40;98.50
11908;DHT22;6014;47.690;9.130;2022-10-17T13:34:00;23.30;98.50
11908;DHT22;6014;47.690;9.130;2022-10-17T13:36:32;23.30;98.20
11908;DHT22;6014;47.690;9.130;2022-10-17T13:39:06;23.30;98.30
11908;DHT22;6014;47.690;9.130;2022-10-17T13:41:39;23.30;98.40
11908;DHT22;6014;47.690;9.130;2022-10-17T13:44:12;23.20;97.50
11908;DHT22;6014;47.690;9.130;2022-10-17T13:46:42;23.10;98.60
11908;DHT22;6014;47.690;9.130;2022-10-17T13:49:17;23.00;97.40
11908;DHT22;6014;47.690;9.130;2022-10-17T13:51:55;23.00;96.90
11908;DHT22;6014;47.690;9.130;2022-10-17T13:54:33;22.80;97.00
11908;DHT22;6014;47.690;9.130;2022-10-17T13:57:04;22.80;98.00
11908;DHT22;6014;47.690;9.130;2022-10-17T13:59:38;22.90;98.50
11908;DHT22;6014;47.690;9.130;2022-10-17T14:02:13;22.80;98.90
11908;DHT22;6014;47.690;9.130;2022-10-17T14:04:42;23.00;97.90
11908;DHT22;6014;47.690;9.130;2022-10-17T14:07:35;22.90;97.40
11908;DHT22;6014;47.690;9.130;2022-10-17T14:10:26;23.00;99.90
11908;DHT22;6014;47.690;9.130;2022-10-17T14:12:58;22.80;99.90
11908;DHT22;6014;47.690;9.130;2022-10-17T14:15:28;22.80;99.90
11908;DHT22;6014;47.690;9.130;2022-10-17T14:17:59;22.80;99.90
11908;DHT22;6014;47.690;9.130;2022-10-17T14:20:34;22.80;99.90
11908;DHT22;6014;47.690;9.130;2022-10-17T14:23:32;22.40;99.90
11908;DHT22;6014;47.690;9.130;2022-10-17T14:26:12;22.30;99.90
11908;DHT22;6014;47.690;9.130;2022-10-17T14:28:43;21.90;99.90
11908;DHT22;6014;47.690;9.130;2022-10-17T14:31:24;21.90;99.90
11908;DHT22;6014;47.690;9.130;2022-10-17T14:33:56;22.00;99.90
11908;DHT22;6014;47.690;9.130;2022-10-17T14:36:36;21.90;99.90
11908;DHT22;6014;47.690;9.130;2022-10-17T14:39:18;21.90;99.90
11908;DHT22;6014;47.690;9.130;2022-10-17T14:41:50;22.00;99.90
11908;DHT22;6014;47.690;9.130;2022-10-17T14:44:22;21.90;99.90
11908;DHT22;6014;47.690;9.130;2022-10-17T14:46:57;21.50;99.90
11908;DHT22;6014;47.690;9.130;2022-10-17T14:49:40;21.30;99.90
11908;DHT22;6014;47.690;9.130;2022-10-17T14:52:21;21.00;99.90
11908;DHT22;6014;47.690;9.130;2022-10-17T14:54:53;21.30;99.90
11908;DHT22;6014;47.690;9.130;2022-10-17T14:57:25;21.40;99.90
11908;DHT22;6014;47.690;9.130;2022-10-17T14:59:55;21.40;99.90
11908;DHT22;6014;47.690;9.130;2022-10-17T15:02:28;21.40;99.90
11908;DHT22;6014;47.690;9.130;2022-10-17T15:05:07;21.10;99.90
11908;DHT22;6014;47.690;9.130;2022-10-17T15:07:45;21.20;99.90
11908;DHT22;6014;47.690;9.130;2022-10-17T15:10:23;21.20;99.90
11908;DHT22;6014;47.690;9.130;2022-10-17T15:12:55;21.20;99.90
11908;DHT22;6014;47.690;9.130;2022-10-17T15:15:48;21.20;99.90
11908;DHT22;6014;47.690;9.130;2022-10-17T15:18:19;21.30;99.90
11908;DHT22;6014;47.690;9.130;2022-10-17T15:20:50;21.20;99.90
11908;DHT22;6014;47.690;9.130;2022-10-17T15:23:32;21.50;99.90
11908;DHT22;6014;47.690;9.130;2022-10-17T15:26:02;21.70;99.90
11908;DHT22;6014;47.690;9.130;2022-10-17T15:28:30;21.70;99.90
11908;DHT22;6014;47.690;9.130;2022-10-17T15:30:59;22.00;99.90
11908;DHT22;6014;47.690;9.130;2022-10-17T15:33:27;21.70;99.90
11908;DHT22;6014;47.690;9.130;2022-10-17T15:35:55;21.50;99.90
11908;DHT22;6014;47.690;9.130;2022-10-17T15:38:28;21.20;99.90
11908;DHT22;6014;47.690;9.130;2022-10-17T15:40:57;21.00;99.90
11908;DHT22;6014;47.690;9.130;2022-10-17T15:43:26;21.00;99.90
11908;DHT22;6014;47.690;9.130;2022-10-17T15:45:54;20.80;99.90
11908;DHT22;6014;47.690;9.130;2022-10-17T15:48:27;20.60;99.90
11908;DHT22;6014;47.690;9.130;2022-10-17T15:50:57;20.50;99.90
11908;DHT22;6014;47.690;9.130;2022-10-17T15:53:25;20.30;99.90
11908;DHT22;6014;47.690;9.130;2022-10-17T15:55:54;20.10;99.90
11908;DHT22;6014;47.690;9.130;2022-10-17T15:58:23;20.00;99.90
11908;DHT22;6014;47.690;9.130;2022-10-17T16:00:57;20.00;99.90
11908;DHT22;6014;47.690;9.130;2022-10-17T16:03:26;19.70;99.90
11908;DHT22;6014;47.690;9.130;2022-10-17T16:05:57;19.60;99.90
11908;DHT22;6014;47.690;9.130;2022-10-17T16:08:25;19.40;99.90
11908;DHT22;6014;47.690;9.130;2022-10-17T16:10:54;19.10;99.90
11908;DHT22;6014;47.690;9.130;2022-10-17T16:13:30;19.00;99.90
11908;DHT22;6014;47.690;9.130;2022-10-17T16:16:02;18.80;99.90
11908;DHT22;6014;47.690;9.130;2022-10-17T16:18:33;18.70;99.90
11908;DHT22;6014;47.690;9.130;2022-10-17T16:21:05;18.50;99.90
11908;DHT22;6014;47.690;9.130;2022-10-17T16:23:33;18.40;99.90
11908;DHT22;6014;47.690;9.130;2022-10-17T16:26:05;18.20;99.90
11908;DHT22;6014;47.690;9.130;2022-10-17T16:28:35;17.90;99.90
11908;DHT22;6014;47.690;9.130;2022-10-17T16:31:17;17.50;99.90
11908;DHT22;6014;47.690;9.130;2022-10-17T16:33:48;17.40;99.90
11908;DHT22;6014;47.690;9.130;2022-10-17T16:36:20;17.20;99.90
11908;DHT22;6014;47.690;9.130;2022-10-17T16:38:50;17.10;99.90
11908;DHT22;6014;47.690;9.130;2022-10-17T16:41:24;17.00;99.90
11908;DHT22;6014;47.690;9.130;2022-10-17T16:43:57;16.80;99.90
11908;DHT22;6014;47.690;9.130;2022-10-17T16:46:28;16.60;99.90
11908;DHT22;6014;47.690;9.130;2022-10-17T16:48:57;16.50;99.90